createdAt,value
2018-07-17T00:00:38.340Z,21.05
2018-07-17T00:03:07.436Z,21.02
2018-07-17T00:05:36.515Z,21.06
2018-07-17T00:08:05.696Z,21.09
2018-07-17T00:10:34.784Z,21.03
2018-07-17T00:13:03.830Z,20.90
2018-07-17T00:15:32.906Z,20.83
2018-07-17T00:18:02.311Z,20.78
2018-07-17T00:20:31.433Z,20.84
2018-07-17T00:23:00.490Z,20.79
2018-07-17T00:25:29.577Z,20.77
2018-07-17T00:27:58.762Z,20.74
2018-07-17T00:30:27.907Z,20.61
2018-07-17T00:32:56.951Z,20.70
2018-07-17T00:35:26.081Z,20.70
2018-07-17T00:37:55.223Z,20.71
2018-07-17T00:40:24.268Z,20.72
2018-07-17T00:42:53.286Z,20.76
2018-07-17T00:45:22.470Z,20.64
2018-07-17T00:47:51.786Z,20.57
2018-07-17T00:50:20.832Z,20.42
2018-07-17T00:52:49.850Z,20.55
2018-07-17T00:55:18.946Z,20.46
2018-07-17T00:57:47.982Z,20.50
2018-07-17T01:00:17.038Z,20.40
2018-07-17T01:02:51.152Z,20.35
2018-07-17T01:05:25.441Z,20.19
2018-07-17T01:07:59.729Z,20.10
2018-07-17T01:10:34.110Z,20.17
2018-07-17T01:13:02.346Z,20.17
2018-07-17T01:15:35.253Z,20.25
2018-07-17T01:18:04.325Z,20.37
2018-07-17T01:20:33.685Z,20.28
2018-07-17T01:23:02.770Z,20.24
2018-07-17T01:25:32.286Z,20.27
2018-07-17T01:28:01.379Z,20.35
2018-07-17T01:30:30.437Z,20.19
2018-07-17T01:32:59.519Z,20.17
2018-07-17T01:35:28.626Z,20.30
2018-07-17T01:37:57.702Z,20.23
2018-07-17T01:40:26.759Z,20.19
2018-07-17T01:42:55.835Z,20.09
2018-07-17T01:45:24.891Z,19.99
2018-07-17T01:47:54.025Z,19.88
2018-07-17T01:50:23.153Z,19.71
2018-07-17T01:52:52.238Z,19.57
2018-07-17T01:55:21.520Z,19.53
2018-07-17T01:57:50.649Z,19.55
2018-07-17T02:00:19.775Z,19.67
2018-07-17T02:02:48.833Z,19.61
2018-07-17T02:05:17.913Z,19.51
2018-07-17T02:07:46.980Z,19.40
2018-07-17T02:10:16.018Z,19.39
2018-07-17T02:12:45.066Z,19.53
2018-07-17T02:15:14.149Z,19.55
2018-07-17T02:17:43.210Z,19.35
2018-07-17T02:20:12.366Z,19.33
2018-07-17T02:22:41.522Z,19.33
2018-07-17T02:25:10.633Z,19.29
2018-07-17T02:27:39.755Z,19.03
2018-07-17T02:30:08.789Z,18.89
2018-07-17T02:32:37.874Z,18.67
2018-07-17T02:35:06.926Z,18.60
2018-07-17T02:37:35.991Z,18.63
2018-07-17T02:40:05.317Z,18.77
2018-07-17T02:42:34.389Z,18.90
2018-07-17T02:45:03.436Z,18.97
2018-07-17T02:47:32.613Z,18.85
2018-07-17T02:50:01.650Z,18.86
2018-07-17T02:52:30.770Z,18.89
2018-07-17T02:54:59.917Z,18.96
2018-07-17T02:57:29.029Z,18.76
2018-07-17T02:59:58.059Z,18.77
2018-07-17T03:02:27.126Z,18.77
2018-07-17T03:04:56.181Z,18.75
2018-07-17T03:07:25.292Z,18.74
2018-07-17T03:09:54.425Z,18.74
2018-07-17T03:12:23.515Z,18.65
2018-07-17T03:14:52.616Z,18.47
2018-07-17T03:17:21.633Z,18.18
2018-07-17T03:19:52.326Z,18.29
2018-07-17T03:22:22.375Z,18.44
2018-07-17T03:24:51.481Z,18.47
2018-07-17T03:27:20.521Z,18.57
2018-07-17T03:29:49.600Z,18.57
2018-07-17T03:32:18.668Z,18.72
2018-07-17T03:34:47.750Z,18.71
2018-07-17T03:37:16.816Z,18.59
2018-07-17T03:39:46.028Z,18.58
2018-07-17T03:42:15.118Z,18.56
2018-07-17T03:44:45.149Z,18.64
2018-07-17T03:47:14.762Z,18.42
2018-07-17T03:49:43.839Z,18.37
2018-07-17T03:52:12.938Z,18.31
2018-07-17T03:54:42.070Z,18.36
2018-07-17T03:57:11.116Z,18.27
2018-07-17T03:59:40.214Z,18.18
2018-07-17T04:02:09.374Z,17.67
2018-07-17T04:04:38.426Z,18.37
2018-07-17T04:07:07.483Z,18.50
2018-07-17T04:09:36.661Z,18.50
2018-07-17T04:12:05.797Z,18.56
2018-07-17T04:14:34.893Z,18.54
2018-07-17T04:17:03.966Z,18.56
2018-07-17T04:19:33.119Z,18.59
2018-07-17T04:22:02.210Z,18.48
2018-07-17T04:24:31.282Z,18.46
2018-07-17T04:27:00.357Z,18.62
2018-07-17T04:29:29.493Z,18.48
2018-07-17T04:31:58.567Z,18.54
2018-07-17T04:34:27.626Z,18.66
2018-07-17T04:36:56.781Z,18.70
2018-07-17T04:39:25.874Z,18.81
2018-07-17T04:41:54.967Z,18.80
2018-07-17T04:44:24.916Z,18.76
2018-07-17T04:46:54.026Z,18.81
2018-07-17T04:49:23.109Z,18.88
2018-07-17T04:51:52.250Z,18.87
2018-07-17T04:54:21.286Z,18.77
2018-07-17T04:56:50.577Z,18.82
2018-07-17T04:59:19.621Z,18.86
2018-07-17T05:01:48.713Z,18.93
2018-07-17T05:04:17.827Z,18.98
2018-07-17T05:06:46.881Z,18.97
2018-07-17T05:09:16.036Z,19.01
2018-07-17T05:11:51.324Z,19.08
2018-07-17T05:14:20.438Z,19.11
2018-07-17T05:16:49.490Z,19.10
2018-07-17T05:19:18.555Z,19.18
2018-07-17T05:21:47.699Z,19.21
2018-07-17T05:24:16.774Z,19.22
2018-07-17T05:26:45.833Z,19.31
2018-07-17T05:29:14.920Z,19.32
2018-07-17T05:31:44.013Z,19.35
2018-07-17T05:34:13.131Z,19.28
2018-07-17T05:36:42.226Z,19.30
2018-07-17T05:39:11.301Z,19.52
2018-07-17T05:41:40.432Z,19.51
2018-07-17T05:44:09.923Z,19.55
2018-07-17T05:46:39.045Z,19.59
2018-07-17T05:49:08.123Z,19.57
2018-07-17T05:51:37.572Z,19.62
2018-07-17T05:54:06.728Z,19.72
2018-07-17T05:56:35.819Z,19.80
2018-07-17T05:59:06.269Z,19.89
2018-07-17T06:01:35.820Z,19.93
2018-07-17T06:04:05.872Z,20.04
2018-07-17T06:06:34.965Z,20.19
2018-07-17T06:09:04.953Z,20.27
2018-07-17T06:11:34.070Z,20.42
2018-07-17T06:14:03.245Z,20.53
2018-07-17T06:16:32.351Z,20.59
2018-07-17T06:19:01.717Z,20.65
2018-07-17T06:21:30.870Z,20.65
2018-07-17T06:24:00.529Z,20.77
2018-07-17T06:26:29.658Z,20.92
2018-07-17T06:28:58.983Z,21.07
2018-07-17T06:31:28.067Z,21.25
2018-07-17T06:33:57.245Z,21.34
2018-07-17T06:36:26.397Z,21.41
2018-07-17T06:38:55.817Z,21.53
2018-07-17T06:41:25.761Z,21.72
2018-07-17T06:43:54.900Z,21.89
2018-07-17T06:46:24.046Z,21.72
2018-07-17T06:48:53.116Z,21.66
2018-07-17T06:51:22.697Z,21.61
2018-07-17T06:53:51.848Z,21.73
2018-07-17T06:56:20.990Z,21.65
2018-07-17T06:58:50.281Z,22.02
2018-07-17T07:01:19.441Z,22.05
2018-07-17T07:03:48.951Z,22.10
2018-07-17T07:06:18.060Z,22.22
2018-07-17T07:08:47.183Z,22.33
2018-07-17T07:11:16.384Z,22.47
2018-07-17T07:13:45.450Z,22.58
2018-07-17T07:16:14.530Z,22.60
2018-07-17T07:18:43.673Z,22.70
2018-07-17T07:21:13.535Z,22.79
2018-07-17T07:23:42.789Z,23.05
2018-07-17T07:26:11.905Z,23.25
2018-07-17T07:28:41.261Z,23.49
2018-07-17T07:31:10.713Z,23.66
2018-07-17T07:33:39.789Z,23.73
2018-07-17T07:36:08.950Z,23.69
2018-07-17T07:38:38.647Z,23.71
2018-07-17T07:41:07.759Z,23.77
2018-07-17T07:43:36.923Z,23.84
2018-07-17T07:46:06.121Z,24.00
2018-07-17T07:48:35.425Z,24.18
2018-07-17T07:51:04.450Z,24.33
2018-07-17T07:53:34.174Z,24.36
2018-07-17T07:56:03.204Z,24.39
2018-07-17T07:58:32.349Z,24.46
2018-07-17T08:01:01.552Z,24.67
2018-07-17T08:03:30.671Z,24.79
2018-07-17T08:06:00.000Z,24.86
2018-07-17T08:08:29.038Z,24.97
2018-07-17T08:10:58.237Z,25.15
2018-07-17T08:13:27.322Z,25.31
2018-07-17T08:15:56.442Z,25.43
2018-07-17T08:18:26.170Z,25.58
2018-07-17T08:20:55.387Z,25.71
2018-07-17T08:23:24.465Z,25.79
2018-07-17T08:25:53.541Z,25.85
2018-07-17T08:28:22.557Z,25.95
2018-07-17T08:30:51.829Z,25.98
2018-07-17T08:33:20.898Z,26.14
2018-07-17T08:35:50.037Z,26.13
2018-07-17T08:38:19.183Z,26.31
2018-07-17T08:40:48.242Z,26.44
2018-07-17T08:43:17.538Z,26.53
2018-07-17T08:45:46.590Z,26.65
2018-07-17T08:48:15.637Z,26.72
2018-07-17T08:50:44.833Z,26.84
2018-07-17T08:53:13.919Z,26.91
2018-07-17T08:55:43.016Z,26.97
2018-07-17T08:58:12.043Z,27.08
2018-07-17T09:00:41.142Z,27.09
2018-07-17T09:03:10.154Z,27.20
2018-07-17T09:05:39.234Z,27.24
2018-07-17T09:08:09.045Z,27.37
2018-07-17T09:10:38.110Z,27.52
2018-07-17T09:13:07.404Z,27.53
2018-07-17T09:15:37.392Z,27.49
2018-07-17T09:18:06.697Z,27.62
2018-07-17T09:20:35.782Z,27.76
2018-07-17T09:23:05.731Z,27.83
2018-07-17T09:25:34.754Z,27.86
2018-07-17T09:28:03.906Z,27.82
2018-07-17T09:30:38.206Z,27.97
2018-07-17T09:33:07.617Z,28.09
2018-07-17T09:35:36.850Z,28.24
2018-07-17T09:38:06.436Z,28.18
2018-07-17T09:40:35.528Z,28.05
2018-07-17T09:43:04.626Z,28.03
2018-07-17T09:45:33.830Z,28.20
2018-07-17T09:48:02.988Z,28.27
2018-07-17T09:50:32.105Z,28.13
2018-07-17T09:53:01.312Z,28.23
2018-07-17T09:55:30.452Z,28.29
2018-07-17T09:57:59.733Z,28.50
2018-07-17T10:00:34.113Z,28.51
2018-07-17T10:03:03.786Z,28.53
2018-07-17T10:05:32.845Z,28.52
2018-07-17T10:08:02.444Z,28.72
2018-07-17T10:10:31.548Z,28.86
2018-07-17T10:13:00.702Z,28.77
2018-07-17T10:15:30.143Z,28.98
2018-07-17T10:17:59.273Z,29.04
2018-07-17T10:20:28.409Z,29.05
2018-07-17T10:22:57.537Z,29.18
2018-07-17T10:25:26.666Z,29.24
2018-07-17T10:27:55.773Z,29.37
2018-07-17T10:30:28.410Z,29.43
2018-07-17T10:32:57.609Z,29.44
2018-07-17T10:35:26.729Z,29.59
2018-07-17T10:37:55.911Z,29.62
2018-07-17T10:40:25.085Z,29.63
2018-07-17T10:42:54.278Z,29.54
2018-07-17T10:45:23.355Z,29.46
2018-07-17T10:47:52.397Z,29.69
2018-07-17T10:50:21.491Z,29.73
2018-07-17T10:52:50.619Z,29.74
2018-07-17T10:55:20.145Z,29.76
2018-07-17T10:57:49.202Z,30.05
2018-07-17T11:00:18.347Z,30.27
2018-07-17T11:02:47.808Z,30.37
2018-07-17T11:05:16.957Z,29.76
2018-07-17T11:07:46.440Z,30.59
2018-07-17T11:10:15.622Z,30.68
2018-07-17T11:12:44.698Z,30.76
2018-07-17T11:15:14.060Z,30.80
2018-07-17T11:17:43.186Z,30.79
2018-07-17T11:20:12.305Z,30.95
2018-07-17T11:22:41.358Z,31.04
2018-07-17T11:25:10.570Z,31.03
2018-07-17T11:27:39.750Z,31.24
2018-07-17T11:30:08.899Z,31.40
2018-07-17T11:32:38.010Z,31.21
2018-07-17T11:35:07.315Z,31.51
2018-07-17T11:37:36.918Z,31.61
2018-07-17T11:40:06.340Z,31.56
2018-07-17T11:42:35.517Z,31.62
2018-07-17T11:45:04.594Z,31.82
2018-07-17T11:47:33.715Z,31.19
2018-07-17T11:50:02.873Z,29.98
2018-07-17T11:52:31.917Z,29.27
2018-07-17T11:55:01.678Z,29.45
2018-07-17T11:57:30.724Z,29.21
2018-07-17T11:59:59.887Z,28.94
2018-07-17T12:02:28.978Z,28.84
2018-07-17T12:04:58.130Z,28.76
2018-07-17T12:07:28.450Z,28.83
2018-07-17T12:09:57.566Z,28.83
2018-07-17T12:12:26.817Z,28.63
2018-07-17T12:14:55.940Z,28.97
2018-07-17T12:17:25.115Z,28.76
2018-07-17T12:19:54.241Z,28.12
2018-07-17T12:22:23.247Z,28.24
2018-07-17T12:24:52.294Z,28.42
2018-07-17T12:27:21.324Z,28.48
2018-07-17T12:29:50.426Z,28.91
2018-07-17T12:32:19.526Z,29.43
2018-07-17T12:34:48.735Z,29.75
2018-07-17T12:37:17.734Z,29.66
2018-07-17T12:39:46.793Z,30.10
2018-07-17T12:42:16.714Z,30.62
2018-07-17T12:44:45.790Z,30.90
2018-07-17T12:47:15.150Z,31.02
2018-07-17T12:49:44.254Z,31.22
2018-07-17T12:52:13.283Z,31.25
2018-07-17T12:54:42.925Z,31.67
2018-07-17T12:57:12.029Z,31.39
2018-07-17T12:59:41.218Z,31.92
2018-07-17T13:02:10.473Z,32.47
2018-07-17T13:04:39.717Z,32.70
2018-07-17T13:07:08.810Z,32.53
2018-07-17T13:09:37.975Z,32.93
2018-07-17T13:12:07.029Z,33.20
2018-07-17T13:14:36.158Z,33.35
2018-07-17T13:17:05.211Z,33.19
2018-07-17T13:19:34.393Z,33.32
2018-07-17T13:22:03.453Z,33.32
2018-07-17T13:24:32.528Z,33.60
2018-07-17T13:27:02.488Z,33.62
2018-07-17T13:29:31.814Z,33.37
2018-07-17T13:32:00.975Z,33.43
2018-07-17T13:34:30.045Z,33.91
2018-07-17T13:36:59.162Z,33.76
2018-07-17T13:39:28.560Z,33.18
2018-07-17T13:41:57.593Z,33.58
2018-07-17T13:44:26.671Z,33.80
2018-07-17T13:46:55.762Z,33.86
2018-07-17T13:49:24.826Z,33.50
2018-07-17T13:51:54.042Z,33.21
2018-07-17T13:54:23.120Z,33.14
2018-07-17T13:56:52.217Z,33.11
2018-07-17T13:59:21.339Z,33.22
2018-07-17T14:01:50.425Z,33.32
2018-07-17T14:04:19.498Z,33.53
2018-07-17T14:06:48.761Z,33.25
2018-07-17T14:09:17.796Z,32.96
2018-07-17T14:11:46.951Z,32.82
2018-07-17T14:14:16.086Z,32.60
2018-07-17T14:16:45.241Z,32.28
2018-07-17T14:19:14.297Z,32.16
2018-07-17T14:21:43.377Z,31.98
2018-07-17T14:24:19.030Z,31.86
2018-07-17T14:26:48.453Z,32.35
2018-07-17T14:29:23.204Z,32.78
2018-07-17T14:31:52.323Z,32.58
2018-07-17T14:34:21.487Z,31.80
2018-07-17T14:36:50.605Z,30.81
2018-07-17T14:39:19.767Z,30.64
2018-07-17T14:41:49.055Z,30.52
2018-07-17T14:44:18.159Z,31.05
2018-07-17T14:46:47.347Z,31.37
2018-07-17T14:49:16.659Z,31.47
2018-07-17T14:51:45.773Z,31.32
2018-07-17T14:54:14.887Z,30.60
2018-07-17T14:56:44.031Z,30.65
2018-07-17T14:59:13.131Z,30.86
2018-07-17T15:01:42.282Z,30.56
2018-07-17T15:04:11.442Z,30.23
2018-07-17T15:06:41.332Z,29.73
2018-07-17T15:09:10.545Z,29.36
2018-07-17T15:11:39.614Z,29.42
2018-07-17T15:14:08.735Z,29.60
2018-07-17T15:16:37.965Z,29.46
2018-07-17T15:19:07.235Z,29.68
2018-07-17T15:21:36.439Z,29.89
2018-07-17T15:24:05.504Z,30.22
2018-07-17T15:26:34.612Z,30.96
2018-07-17T15:29:03.754Z,31.82
2018-07-17T15:31:32.927Z,32.84
2018-07-17T15:34:02.392Z,33.27
2018-07-17T15:36:31.499Z,33.81
2018-07-17T15:39:01.317Z,34.39
2018-07-17T15:41:30.411Z,34.63
2018-07-17T15:43:59.566Z,34.72
2018-07-17T15:46:28.730Z,35.25
2018-07-17T15:48:57.807Z,34.82
2018-07-17T15:51:26.903Z,34.87
2018-07-17T15:53:56.084Z,35.40
2018-07-17T15:56:25.249Z,35.54
2018-07-17T15:58:54.288Z,35.92
2018-07-17T16:01:23.478Z,36.17
2018-07-17T16:03:52.874Z,36.15
2018-07-17T16:06:22.330Z,35.38
2018-07-17T16:08:51.346Z,35.79
2018-07-17T16:11:20.533Z,36.44
2018-07-17T16:13:49.784Z,35.51
2018-07-17T16:16:18.814Z,35.00
2018-07-17T16:18:47.958Z,34.52
2018-07-17T16:21:17.386Z,34.47
2018-07-17T16:23:46.432Z,33.79
2018-07-17T16:26:15.710Z,33.49
2018-07-17T16:28:44.925Z,32.84
2018-07-17T16:31:15.226Z,31.58
2018-07-17T16:33:44.358Z,31.11
2018-07-17T16:36:13.419Z,31.09
2018-07-17T16:38:42.747Z,31.71
2018-07-17T16:41:12.385Z,32.18
2018-07-17T16:43:41.477Z,32.38
2018-07-17T16:46:10.529Z,32.27
2018-07-17T16:48:39.617Z,32.42
2018-07-17T16:51:08.721Z,32.31
2018-07-17T16:53:37.853Z,32.41
2018-07-17T16:56:07.498Z,31.82
2018-07-17T16:58:36.586Z,31.09
2018-07-17T17:01:05.687Z,30.69
2018-07-17T17:03:34.811Z,30.77
2018-07-17T17:06:03.882Z,30.88
2018-07-17T17:08:32.942Z,31.16
2018-07-17T17:11:02.019Z,31.49
2018-07-17T17:13:31.167Z,31.90
2018-07-17T17:16:00.262Z,32.05
2018-07-17T17:18:29.330Z,31.95
2018-07-17T17:20:58.466Z,31.46
2018-07-17T17:23:27.605Z,31.22
2018-07-17T17:25:57.143Z,31.48
2018-07-17T17:28:26.598Z,31.49
2018-07-17T17:30:56.574Z,31.51
2018-07-17T17:33:26.213Z,31.43
2018-07-17T17:35:55.531Z,31.10
2018-07-17T17:38:24.666Z,31.02
2018-07-17T17:40:53.718Z,31.17
2018-07-17T17:43:23.017Z,31.19
2018-07-17T17:45:52.122Z,31.02
2018-07-17T17:48:21.201Z,31.01
2018-07-17T17:50:50.948Z,31.06
2018-07-17T17:53:20.007Z,31.12
2018-07-17T17:55:49.148Z,31.05
2018-07-17T17:58:18.205Z,30.94
2018-07-17T18:00:49.157Z,30.90
2018-07-17T18:03:18.227Z,30.90
2018-07-17T18:05:47.637Z,30.59
2018-07-17T18:08:16.716Z,30.16
2018-07-17T18:10:45.898Z,29.85
2018-07-17T18:13:14.952Z,29.46
2018-07-17T18:15:44.430Z,29.61
2018-07-17T18:18:13.603Z,29.54
2018-07-17T18:20:43.385Z,29.47
2018-07-17T18:23:12.496Z,29.73
2018-07-17T18:25:41.596Z,29.94
2018-07-17T18:28:10.693Z,30.09
2018-07-17T18:30:39.861Z,30.02
2018-07-17T18:33:08.955Z,29.73
2018-07-17T18:35:38.016Z,29.47
2018-07-17T18:38:07.178Z,29.48
2018-07-17T18:40:38.646Z,29.58
2018-07-17T18:43:07.742Z,29.52
2018-07-17T18:45:36.752Z,29.33
2018-07-17T18:48:06.012Z,29.33
2018-07-17T18:50:35.098Z,29.34
2018-07-17T18:53:04.271Z,29.45
2018-07-17T18:55:33.401Z,29.48
2018-07-17T18:58:02.528Z,29.45
2018-07-17T19:00:31.567Z,29.27
2018-07-17T19:03:00.651Z,29.16
2018-07-17T19:06:01.437Z,25.41
2018-07-17T19:08:41.088Z,29.06
2018-07-17T19:11:19.951Z,28.95
2018-07-17T19:13:54.599Z,28.84
2018-07-17T19:16:23.677Z,28.69
2018-07-17T19:18:52.777Z,28.64
2018-07-17T19:21:21.877Z,28.60
2018-07-17T19:23:51.272Z,28.63
2018-07-17T19:26:20.675Z,28.45
2018-07-17T19:28:49.957Z,28.26
2018-07-17T19:31:19.131Z,28.23
2018-07-17T19:33:48.235Z,28.19
2018-07-17T19:36:17.434Z,28.20
2018-07-17T19:38:46.568Z,27.99
2018-07-17T19:41:15.734Z,27.86
2018-07-17T19:43:45.051Z,27.81
2018-07-17T19:46:14.128Z,26.57
2018-07-17T19:48:43.266Z,27.56
2018-07-17T19:51:28.192Z,24.70
2018-07-17T19:54:01.806Z,26.06
2018-07-17T19:56:32.945Z,27.42
2018-07-17T19:59:02.060Z,27.33
2018-07-17T20:01:31.139Z,27.25
2018-07-17T20:04:00.213Z,27.20
2018-07-17T20:06:29.384Z,27.19
2018-07-17T20:08:59.076Z,27.19
2018-07-17T20:11:28.443Z,27.26
2018-07-17T20:13:57.518Z,27.05
2018-07-17T20:16:26.629Z,26.96
2018-07-17T20:18:55.707Z,27.01
2018-07-17T20:21:24.998Z,26.98
2018-07-17T20:23:54.052Z,26.77
2018-07-17T20:26:23.165Z,26.69
2018-07-17T20:28:52.270Z,26.44
2018-07-17T20:31:21.554Z,26.47
2018-07-17T20:33:50.652Z,26.35
2018-07-17T20:36:19.679Z,26.23
2018-07-17T20:38:48.739Z,26.19
2018-07-17T20:41:17.817Z,26.08
2018-07-17T20:43:47.281Z,26.15
2018-07-17T20:46:16.490Z,25.93
2018-07-17T20:48:45.696Z,25.90
2018-07-17T20:51:14.761Z,25.67
2018-07-17T20:53:43.815Z,25.79
2018-07-17T20:56:13.389Z,25.79
2018-07-17T20:58:42.653Z,25.45
2018-07-17T21:01:12.024Z,25.38
2018-07-17T21:03:41.436Z,25.65
2018-07-17T21:06:11.112Z,25.83
2018-07-17T21:08:40.227Z,25.76
2018-07-17T21:11:09.670Z,25.91
2018-07-17T21:13:39.664Z,26.10
2018-07-17T21:16:09.042Z,26.21
2018-07-17T21:18:38.179Z,26.05
2018-07-17T21:21:07.437Z,26.08
2018-07-17T21:23:36.538Z,25.87
2018-07-17T21:26:05.982Z,25.80
2018-07-17T21:28:35.152Z,25.67
2018-07-17T21:31:04.208Z,25.46
2018-07-17T21:33:33.431Z,25.36
2018-07-17T21:36:02.568Z,21.92
2018-07-17T21:38:31.820Z,25.46
2018-07-17T21:41:00.910Z,25.31
2018-07-17T21:43:29.975Z,25.10
2018-07-17T21:45:59.337Z,25.34
2018-07-17T21:48:28.414Z,25.29
2018-07-17T21:50:57.520Z,25.20
2018-07-17T21:53:26.549Z,25.15
2018-07-17T21:55:55.625Z,25.05
2018-07-17T21:58:24.763Z,24.95
2018-07-17T22:00:53.992Z,24.90
2018-07-17T22:03:23.052Z,24.76
2018-07-17T22:05:52.280Z,24.72
2018-07-17T22:08:21.337Z,24.71
2018-07-17T22:10:50.767Z,24.63
2018-07-17T22:13:20.043Z,24.52
2018-07-17T22:15:49.149Z,24.39
2018-07-17T22:18:18.191Z,24.44
2018-07-17T22:20:47.236Z,24.40
2018-07-17T22:23:16.420Z,24.35
2018-07-17T22:25:45.603Z,24.29
2018-07-17T22:28:14.642Z,24.22
2018-07-17T22:30:43.714Z,24.10
2018-07-17T22:33:12.796Z,24.07
2018-07-17T22:35:41.858Z,23.32
2018-07-17T22:38:11.224Z,24.08
2018-07-17T22:40:40.290Z,24.10
2018-07-17T22:43:09.358Z,24.08
2018-07-17T22:45:38.431Z,24.10
2018-07-17T22:48:07.529Z,24.00
2018-07-17T22:50:36.621Z,24.05
2018-07-17T22:53:05.666Z,24.04
2018-07-17T22:55:34.977Z,24.00
2018-07-17T22:58:04.055Z,23.94
2018-07-17T23:00:33.088Z,23.80
2018-07-17T23:03:02.125Z,23.55
2018-07-17T23:05:31.162Z,23.53
2018-07-17T23:08:00.185Z,23.39
2018-07-17T23:10:29.199Z,23.38
2018-07-17T23:12:58.268Z,23.18
2018-07-17T23:15:27.307Z,23.09
2018-07-17T23:17:56.333Z,23.27
2018-07-17T23:20:25.475Z,23.28
2018-07-17T23:22:56.643Z,23.18
2018-07-17T23:25:26.763Z,23.30
2018-07-17T23:27:56.450Z,23.22
2018-07-17T23:30:25.568Z,23.22
2018-07-17T23:32:54.775Z,23.14
2018-07-17T23:35:24.793Z,23.11
2018-07-17T23:37:54.177Z,23.08
2018-07-17T23:40:23.581Z,23.09
2018-07-17T23:42:52.714Z,23.04
2018-07-17T23:45:28.348Z,23.07
2018-07-17T23:47:57.396Z,23.03
2018-07-17T23:50:26.391Z,23.09
2018-07-17T23:52:55.452Z,23.00
2018-07-17T23:55:24.481Z,23.06
2018-07-17T23:57:53.845Z,23.06
